createdAt,value
2022-08-06T00:03:16.702Z,15.3
2022-08-06T00:08:22.914Z,15.2
2022-08-06T00:13:29.123Z,15.1
2022-08-06T00:18:35.330Z,15.1
2022-08-06T00:23:54.988Z,15.0
2022-08-06T00:28:46.788Z,14.9
2022-08-06T00:38:59.461Z,14.8
2022-08-06T00:44:04.144Z,14.7
2022-08-06T00:49:11.146Z,14.7
2022-08-06T00:54:17.873Z,14.7
2022-08-06T00:59:22.081Z,14.6
2022-08-06T01:04:28.308Z,14.6
2022-08-06T01:09:34.502Z,14.5
2022-08-06T01:14:40.704Z,14.4
2022-08-06T01:21:20.506Z,14.3
2022-08-06T01:24:53.125Z,14.3
2022-08-06T01:29:59.334Z,14.2
2022-08-06T01:35:05.546Z,14.2
2022-08-06T01:40:11.809Z,14.2
2022-08-06T01:45:17.958Z,14.2
2022-08-06T01:50:27.888Z,14.2
2022-08-06T01:55:42.431Z,14.2
2022-08-06T02:00:36.731Z,14.2
2022-08-06T02:05:44.988Z,14.2
2022-08-06T02:10:49.015Z,14.2
2022-08-06T02:15:58.811Z,14.2
2022-08-06T02:21:13.701Z,14.2
2022-08-06T02:26:07.643Z,14.2
2022-08-06T02:31:12.857Z,14.2
2022-08-06T02:36:26.822Z,14.1
2022-08-06T02:41:25.272Z,14.1
2022-08-06T02:46:30.505Z,14.0
2022-08-06T02:52:10.421Z,14.0
2022-08-06T02:56:45.625Z,14.0
2022-08-06T03:01:50.262Z,13.9
2022-08-06T03:06:55.348Z,13.9
2022-08-06T03:12:01.553Z,13.9
2022-08-06T03:17:06.831Z,13.8
2022-08-06T03:22:18.793Z,13.8
2022-08-06T03:27:20.792Z,13.7
2022-08-06T03:32:52.091Z,13.7
2022-08-06T03:37:59.138Z,13.6
2022-08-06T03:42:37.817Z,13.6
2022-08-06T03:48:05.480Z,13.6
2022-08-06T03:52:50.237Z,13.6
2022-08-06T03:57:56.443Z,13.5
2022-08-06T04:03:03.397Z,13.5
2022-08-06T04:08:08.857Z,13.5
2022-08-06T04:14:03.611Z,13.4
2022-08-06T04:18:21.275Z,13.4
2022-08-06T04:23:38.027Z,13.3
2022-08-06T04:28:33.693Z,13.3
2022-08-06T04:33:38.935Z,13.3
2022-08-06T04:38:51.615Z,13.3
2022-08-06T04:43:52.054Z,13.3
2022-08-06T04:49:00.922Z,13.3
2022-08-06T04:54:02.956Z,13.3
2022-08-06T04:59:08.995Z,13.2
2022-08-06T05:04:15.684Z,13.2
2022-08-06T05:09:23.365Z,13.3
2022-08-06T05:14:27.614Z,13.3
2022-08-06T05:19:33.829Z,13.4
2022-08-06T05:25:03.242Z,13.4
2022-08-06T05:29:52.349Z,13.5
2022-08-06T05:34:52.873Z,13.6
2022-08-06T05:39:59.474Z,13.7
2022-08-06T05:45:04.867Z,13.8
2022-08-06T05:50:11.544Z,13.9
2022-08-06T05:55:17.315Z,14.1
2022-08-06T06:00:31.638Z,14.2
2022-08-06T06:06:04.822Z,14.3
2022-08-06T06:10:35.905Z,14.5
2022-08-06T06:16:00.811Z,14.7
2022-08-06T06:21:03.775Z,14.9
2022-08-06T06:25:54.594Z,15.1
2022-08-06T06:31:02.753Z,15.3
2022-08-06T06:36:06.975Z,15.5
2022-08-06T06:41:20.808Z,15.8
2022-08-06T06:46:38.416Z,16.1
2022-08-06T06:51:27.003Z,16.5
2022-08-06T06:56:32.327Z,16.8
2022-08-06T07:01:36.127Z,17.2
2022-08-06T07:06:44.666Z,17.6
2022-08-06T07:12:03.336Z,17.9
2022-08-06T07:16:54.713Z,18.2
2022-08-06T07:22:00.932Z,18.6
2022-08-06T07:27:07.129Z,19.0
2022-08-06T07:32:30.978Z,19.3
2022-08-06T07:37:19.548Z,19.7
2022-08-06T07:42:25.750Z,20.0
2022-08-06T07:47:46.514Z,20.4
2022-08-06T07:52:38.175Z,20.7
2022-08-06T07:57:58.825Z,20.9
2022-08-06T08:02:50.590Z,21.2
2022-08-06T08:07:58.347Z,21.5
2022-08-06T08:13:03.751Z,21.7
2022-08-06T08:18:09.241Z,21.9
2022-08-06T08:23:29.616Z,22.1
2022-08-06T08:28:21.634Z,22.3
2022-08-06T08:33:27.844Z,22.4
2022-08-06T08:38:33.090Z,22.6
2022-08-06T08:43:59.114Z,22.8
2022-08-06T08:48:45.496Z,23.0
2022-08-06T08:53:51.702Z,23.1
2022-08-06T08:59:01.486Z,23.2
2022-08-06T09:04:04.118Z,23.3
2022-08-06T09:09:15.686Z,23.4
2022-08-06T09:14:16.542Z,23.5
2022-08-06T09:19:22.747Z,23.6
2022-08-06T09:24:33.544Z,23.8
2022-08-06T09:29:35.593Z,23.9
2022-08-06T09:34:41.741Z,24.1
2022-08-06T09:40:05.782Z,24.1
2022-08-06T09:44:53.786Z,24.1
2022-08-06T09:50:00.744Z,24.3
2022-08-06T09:55:16.957Z,24.3
2022-08-06T10:00:14.644Z,24.4
2022-08-06T10:05:19.917Z,24.4
2022-08-06T10:10:33.176Z,24.5
2022-08-06T10:15:57.856Z,24.6
2022-08-06T10:20:37.246Z,24.7
2022-08-06T10:25:46.043Z,24.8
2022-08-06T10:30:48.695Z,24.7
2022-08-06T10:35:53.928Z,24.6
2022-08-06T10:41:01.455Z,24.6
2022-08-06T10:46:06.503Z,24.7
2022-08-06T10:51:11.591Z,24.7
2022-08-06T10:56:18.223Z,24.8
2022-08-06T11:01:24.006Z,25.0
2022-08-06T11:06:36.215Z,25.1
2022-08-06T11:11:39.547Z,24.8
2022-08-06T11:16:42.629Z,24.6
2022-08-06T11:22:01.879Z,24.5
2022-08-06T11:27:01.220Z,24.6
2022-08-06T11:32:01.279Z,24.8
2022-08-06T11:37:11.107Z,25.0
2022-08-06T11:42:13.670Z,25.2
2022-08-06T11:47:22.773Z,25.3
2022-08-06T11:52:26.080Z,25.4
2022-08-06T11:57:41.488Z,25.4
2022-08-06T12:02:38.566Z,25.5
2022-08-06T12:07:51.703Z,25.6
2022-08-06T12:12:50.922Z,25.7
2022-08-06T12:18:19.167Z,25.8
2022-08-06T12:23:03.337Z,25.9
2022-08-06T12:28:09.618Z,25.9
2022-08-06T12:33:17.247Z,25.9
2022-08-06T12:38:24.841Z,26.1
2022-08-06T12:43:42.772Z,26.2
2022-08-06T12:48:33.419Z,26.3
2022-08-06T12:53:39.619Z,26.5
2022-08-06T12:58:46.069Z,26.5
2022-08-06T13:04:02.795Z,26.5
2022-08-06T13:08:58.245Z,26.6
2022-08-06T13:14:17.084Z,26.6
2022-08-06T13:19:15.773Z,26.6
2022-08-06T13:24:16.879Z,26.4
2022-08-06T13:30:31.798Z,26.2
2022-08-06T13:34:29.287Z,26.0
2022-08-06T13:39:35.555Z,26.0
2022-08-06T13:44:41.707Z,25.9
2022-08-06T13:50:00.619Z,25.8
2022-08-06T13:54:54.125Z,25.7
2022-08-06T14:00:00.461Z,25.7
2022-08-06T14:05:14.333Z,25.6
2022-08-06T14:10:12.746Z,25.5
2022-08-06T14:15:18.957Z,25.4
2022-08-06T14:20:25.905Z,25.2
2022-08-06T14:25:52.341Z,25.1
2022-08-06T14:30:40.290Z,25.0
2022-08-06T14:35:50.377Z,25.0
2022-08-06T14:41:00.893Z,25.0
2022-08-06T14:50:59.498Z,24.8
2022-08-06T14:56:07.989Z,24.7
2022-08-06T15:01:15.431Z,24.7
2022-08-06T15:06:18.134Z,24.6
2022-08-06T15:11:24.335Z,24.6
2022-08-06T15:16:48.166Z,24.5
2022-08-06T15:21:44.135Z,24.4
2022-08-06T15:26:48.394Z,24.4
2022-08-06T15:31:49.185Z,24.4
2022-08-06T15:37:01.420Z,24.4
2022-08-06T15:42:01.599Z,24.5
2022-08-06T15:47:07.792Z,24.5
2022-08-06T15:52:14.005Z,24.6
2022-08-06T15:57:20.209Z,24.9
2022-08-06T16:02:30.718Z,25.3
2022-08-06T16:07:32.627Z,25.6
2022-08-06T16:12:38.839Z,26.0
2022-08-06T16:18:05.921Z,26.2
2022-08-06T16:22:51.654Z,26.1
2022-08-06T16:27:57.482Z,25.9
2022-08-06T16:33:02.704Z,25.7
2022-08-06T16:38:12.371Z,25.5
2022-08-06T16:43:14.145Z,25.3
2022-08-06T16:48:27.273Z,25.2
2022-08-06T16:54:07.729Z,25.1
2022-08-06T16:58:35.319Z,25.0
2022-08-06T17:03:42.617Z,24.9
2022-08-06T17:13:54.571Z,24.8
2022-08-06T17:18:58.309Z,24.9
2022-08-06T17:24:03.818Z,25.1
2022-08-06T17:29:10.039Z,25.4
2022-08-06T17:34:16.240Z,25.6
2022-08-06T17:39:32.879Z,25.7
2022-08-06T17:44:28.666Z,25.8
2022-08-06T17:49:34.870Z,25.8
2022-08-06T17:54:46.461Z,25.8
2022-08-06T17:59:47.345Z,25.7
2022-08-06T18:04:53.487Z,25.5
2022-08-06T18:10:09.202Z,25.3
2022-08-06T18:15:06.093Z,25.1
2022-08-06T18:20:12.115Z,25.0
2022-08-06T18:25:18.328Z,24.8
2022-08-06T18:30:36.453Z,24.6
2022-08-06T18:40:40.439Z,24.1
2022-08-06T18:45:59.313Z,23.9
2022-08-06T18:50:47.431Z,23.6
2022-08-06T18:55:58.850Z,23.4
2022-08-06T19:00:59.857Z,23.1
2022-08-06T19:06:06.049Z,22.9
2022-08-06T19:11:12.251Z,22.6
2022-08-06T19:16:18.466Z,22.4
2022-08-06T19:21:24.672Z,22.1
2022-08-06T19:26:30.884Z,21.9
2022-08-06T19:31:43.451Z,21.6
2022-08-06T19:36:43.297Z,21.4
2022-08-06T19:42:00.417Z,21.2
2022-08-06T19:46:56.561Z,21.0
2022-08-06T19:52:04.243Z,20.8
2022-08-06T19:57:09.561Z,20.6
2022-08-06T20:02:16.269Z,20.4
2022-08-06T20:07:24.962Z,20.2
2022-08-06T20:12:29.871Z,20.0
2022-08-06T20:17:49.681Z,19.9
2022-08-06T20:22:38.194Z,19.7
2022-08-06T20:29:07.598Z,19.6
2022-08-06T20:32:54.795Z,19.5
2022-08-06T20:37:55.851Z,19.3
2022-08-06T20:43:01.104Z,19.1
2022-08-06T20:48:07.288Z,18.9
2022-08-06T20:53:13.506Z,18.7
2022-08-06T20:58:19.721Z,18.6
2022-08-06T21:05:11.116Z,18.5
2022-08-06T21:08:32.126Z,18.3
2022-08-06T21:14:03.454Z,18.2
2022-08-06T21:18:44.540Z,18.2
2022-08-06T21:23:56.543Z,18.1
2022-08-06T21:34:03.167Z,17.9
2022-08-06T21:39:13.000Z,17.9
2022-08-06T21:44:15.585Z,17.8
2022-08-06T21:49:58.722Z,17.8
2022-08-06T21:54:29.220Z,17.7
2022-08-06T21:59:37.916Z,17.6
2022-08-06T22:04:59.553Z,17.5
2022-08-06T22:09:46.621Z,17.5
2022-08-06T22:14:52.829Z,17.5
2022-08-06T22:19:59.036Z,17.4
2022-08-06T22:25:05.243Z,17.4
2022-08-06T22:30:11.475Z,17.3
2022-08-06T22:35:16.687Z,17.3
2022-08-06T22:40:22.897Z,17.2
2022-08-06T22:45:59.830Z,17.2
2022-08-06T22:50:34.340Z,17.1
2022-08-06T22:55:41.109Z,17.0
2022-08-06T23:00:48.151Z,17.0
2022-08-06T23:05:52.973Z,16.8
2022-08-06T23:10:59.174Z,16.8
2022-08-06T23:16:05.389Z,16.7
2022-08-06T23:21:11.598Z,16.6
2022-08-06T23:26:17.802Z,16.5
2022-08-06T23:31:24.028Z,16.5
2022-08-06T23:36:30.242Z,16.4
2022-08-06T23:42:00.985Z,16.4
2022-08-06T23:46:51.326Z,16.3
2022-08-06T23:52:03.796Z,16.3
2022-08-06T23:56:55.100Z,16.2
